Time;durP1;ratioP1;P1;durP2;ratioP2;P2;SDS_P1;SDS_P2;PMS_P1;PMS_P2;Temp;Humidity;BMP_temperature;BMP_pressure;BME280_temperature;BME280_humidity;BME280_pressure;Samples;Min_cycle;Max_cycle;Signal;HPM_P1;HPM_P2
2023/06/26 05:20:56;;;;;;;1.57;1.47;;;;;;;;;;5087747;27;20475;-72
2023/06/26 05:23:26;;;;;;;3.50;1.38;;;;;;;;;;5097751;27;20594;-72
2023/06/26 05:25:53;;;;;;;3.00;1.17;;;;;;;;;;5090031;27;20514;-72
2023/06/26 05:28:21;;;;;;;1.45;1.35;;;;;;;;;;5094454;27;20448;-72
2023/06/26 05:30:49;;;;;;;1.98;1.67;;;;;;;;;;5095375;27;20440;-73
2023/06/26 05:33:19;;;;;;;1.55;1.55;;;;;;;;;;5089231;27;20430;-73
2023/06/26 05:35:46;;;;;;;1.40;1.40;;;;;;;;;;5099366;27;20503;-73
2023/06/26 05:38:14;;;;;;;2.05;1.95;;;;;;;;;;5096103;27;20547;-73
2023/06/26 05:40:41;;;;;;;5.55;1.83;;;;;;;;;;5101484;27;21027;-73
2023/06/26 05:43:08;;;;;;;7.10;1.50;;;;;;;;;;5100728;27;20434;-73
2023/06/26 05:45:36;;;;;;;2.50;2.10;;;;;;;;;;5097759;27;20492;-73
2023/06/26 05:48:06;;;;;;;2.20;1.88;;;;;;;;;;5095802;27;20456;-73
2023/06/26 05:50:33;;;;;;;2.13;1.95;;;;;;;;;;5098597;27;20764;-73
2023/06/26 05:53:03;;;;;;;2.17;1.95;;;;;;;;;;5093781;27;20488;-73
2023/06/26 05:55:30;;;;;;;1.88;1.60;;;;;;;;;;5094421;27;20566;-73
2023/06/26 05:58:02;;;;;;;2.07;1.70;;;;;;;;;;5099258;27;20437;-73
2023/06/26 06:00:29;;;;;;;1.80;1.70;;;;;;;;;;5096337;27;20441;-72
2023/06/26 06:02:56;;;;;;;2.10;2.00;;;;;;;;;;5097771;27;20429;-72
2023/06/26 06:05:24;;;;;;;4.30;2.05;;;;;;;;;;5094772;27;20843;-73
2023/06/26 06:07:51;;;;;;;2.00;1.90;;;;;;;;;;5090153;27;20439;-73
2023/06/26 06:10:18;;;;;;;1.98;1.77;;;;;;;;;;5094628;27;20431;-73
2023/06/26 06:12:45;;;;;;;1.90;1.10;;;;;;;;;;5099284;27;20474;-73
2023/06/26 06:15:13;;;;;;;1.83;1.73;;;;;;;;;;5096500;27;20466;-72
2023/06/26 06:17:40;;;;;;;2.17;2.00;;;;;;;;;;5097162;27;20447;-72
2023/06/26 06:20:07;;;;;;;1.07;1.03;;;;;;;;;;5095261;27;20494;-72
2023/06/26 06:22:34;;;;;;;1.80;1.70;;;;;;;;;;5099676;27;20419;-73
2023/06/26 06:25:01;;;;;;;1.27;1.27;;;;;;;;;;5096070;27;20475;-73
2023/06/26 06:27:29;;;;;;;2.80;1.70;;;;;;;;;;5096873;27;20504;-73
2023/06/26 06:29:56;;;;;;;1.20;1.20;;;;;;;;;;5092516;27;20505;-72
2023/06/26 06:32:23;;;;;;;3.65;3.42;;;;;;;;;;5080453;27;20434;-73
2023/06/26 06:34:50;;;;;;;1.50;1.40;;;;;;;;;;5077616;27;20430;-73
2023/06/26 06:37:17;;;;;;;1.17;1.08;;;;;;;;;;5079800;27;20600;-72
2023/06/26 06:39:45;;;;;;;1.03;1.03;;;;;;;;;;5080661;28;20955;-73
2023/06/26 06:42:14;;;;;;;1.25;1.25;;;;;;;;;;5084518;27;20416;-73
2023/06/26 06:44:41;;;;;;;2.22;1.92;;;;;;;;;;5083131;27;20428;-72
2023/06/26 06:47:11;;;;;;;1.53;1.43;;;;;;;;;;5079723;27;20985;-73
2023/06/26 06:49:38;;;;;;;3.60;1.73;;;;;;;;;;5079976;27;20448;-73
2023/06/26 06:52:05;;;;;;;2.00;1.80;;;;;;;;;;5083884;28;20434;-73
2023/06/26 06:54:51;;;;;;;2.13;1.92;;;;;;;;;;5081177;27;20777;-73
2023/06/26 06:57:18;;;;;;;1.73;1.63;;;;;;;;;;5079084;28;20877;-72
2023/06/26 06:59:45;;;;;;;2.22;2.08;;;;;;;;;;5080150;28;20454;-72
2023/06/26 07:02:12;;;;;;;2.03;1.90;;;;;;;;;;5080408;27;20424;-72
2023/06/26 07:04:39;;;;;;;2.30;1.85;;;;;;;;;;5078574;27;20461;-72
2023/06/26 07:07:10;;;;;;;5.53;1.90;;;;;;;;;;5081470;27;20444;-72
2023/06/26 07:09:38;;;;;;;4.55;2.38;;;;;;;;;;5082500;27;20522;-73
2023/06/26 07:12:06;;;;;;;1.80;1.75;;;;;;;;;;5080178;27;20785;-73
2023/06/26 07:14:33;;;;;;;1.40;1.10;;;;;;;;;;5082616;27;20491;-73
2023/06/26 07:17:05;;;;;;;43.60;36.05;;;;;;;;;;5080288;27;20435;-73
2023/06/26 07:19:32;;;;;;;306.33;275.58;;;;;;;;;;5078854;27;20430;-74
2023/06/26 07:21:59;;;;;;;2.27;1.30;;;;;;;;;;5084524;27;20452;-74
2023/06/26 07:24:26;;;;;;;2.45;2.20;;;;;;;;;;5078725;27;20488;-74
2023/06/26 07:26:53;;;;;;;71.60;64.22;;;;;;;;;;5083210;27;20547;-75
2023/06/26 07:29:20;;;;;;;1.15;1.10;;;;;;;;;;5075552;27;20434;-75
2023/06/26 07:31:48;;;;;;;1.00;1.00;;;;;;;;;;5083887;27;20489;-75
2023/06/26 07:34:15;;;;;;;9.20;8.25;;;;;;;;;;5078925;27;20435;-75
2023/06/26 07:36:42;;;;;;;219.60;200.33;;;;;;;;;;5081349;27;20512;-75
2023/06/26 07:39:09;;;;;;;1.10;1.10;;;;;;;;;;5077439;27;20540;-75
2023/06/26 07:41:41;;;;;;;1.33;1.23;;;;;;;;;;5081997;27;20508;-75
2023/06/26 07:44:08;;;;;;;1.70;1.60;;;;;;;;;;5083224;27;20432;-75
2023/06/26 07:46:36;;;;;;;1.10;1.10;;;;;;;;;;5077995;28;20458;-74
2023/06/26 07:49:03;;;;;;;1.25;1.25;;;;;;;;;;5080009;27;20835;-75
2023/06/26 07:51:30;;;;;;;1.80;1.42;;;;;;;;;;5083300;27;20988;-76
2023/06/26 07:53:58;;;;;;;1.90;1.80;;;;;;;;;;5084642;27;20429;-77
2023/06/26 07:56:26;;;;;;;1.30;1.20;;;;;;;;;;5081254;27;20432;-75
2023/06/26 07:58:53;;;;;;;1.48;1.38;;;;;;;;;;5085942;27;20444;-75
2023/06/26 08:01:25;;;;;;;1.23;1.20;;;;;;;;;;5076472;28;20433;-77
2023/06/26 08:03:54;;;;;;;1.27;1.17;;;;;;;;;;5085342;27;20929;-77
2023/06/26 08:06:21;;;;;;;2.07;1.93;;;;;;;;;;5088276;27;20431;-79
2023/06/26 08:08:49;;;;;;;1.58;1.48;;;;;;;;;;5086166;27;21315;-84
2023/06/26 08:11:21;;;;;;;1.95;1.85;;;;;;;;;;5087158;27;20499;-79
2023/06/26 08:13:51;;;;;;;1.35;1.35;;;;;;;;;;5083496;28;20428;-78
2023/06/26 08:16:18;;;;;;;2.75;1.50;;;;;;;;;;5085235;27;20540;-78
2023/06/26 08:18:46;;;;;;;1.60;1.50;;;;;;;;;;5080886;28;20436;-76
2023/06/26 08:21:13;;;;;;;1.23;1.23;;;;;;;;;;5083134;27;20550;-77
2023/06/26 08:23:43;;;;;;;1.70;1.30;;;;;;;;;;5084248;27;20428;-73
2023/06/26 08:26:10;;;;;;;1.55;1.55;;;;;;;;;;5080907;28;20910;-74
2023/06/26 08:28:37;;;;;;;1.45;1.38;;;;;;;;;;5080095;27;20575;-74
2023/06/26 08:31:06;;;;;;;75.95;69.10;;;;;;;;;;5079042;27;20433;-74
2023/06/26 08:33:33;;;;;;;1.45;1.45;;;;;;;;;;5086078;27;20433;-74
2023/06/26 08:36:03;;;;;;;1.40;1.40;;;;;;;;;;5081120;27;20521;-73
2023/06/26 08:38:32;;;;;;;1.20;1.13;;;;;;;;;;5085899;28;20440;-74
2023/06/26 08:41:00;;;;;;;0.90;0.90;;;;;;;;;;5079696;27;20475;-74
2023/06/26 08:43:28;;;;;;;1.52;1.45;;;;;;;;;;5080450;28;20434;-74
2023/06/26 08:45:55;;;;;;;0.98;0.88;;;;;;;;;;5080628;27;20832;-74
2023/06/26 08:48:23;;;;;;;1.45;1.35;;;;;;;;;;5082543;27;21216;-74
2023/06/26 08:50:54;;;;;;;1.53;1.43;;;;;;;;;;5083582;27;20604;-74
2023/06/26 08:53:21;;;;;;;1.05;1.05;;;;;;;;;;5081662;27;20433;-74
2023/06/26 08:55:53;;;;;;;1.45;1.35;;;;;;;;;;5080516;27;20557;-74
2023/06/26 08:58:20;;;;;;;1.67;1.50;;;;;;;;;;5079893;27;20848;-74
2023/06/26 09:00:49;;;;;;;1.50;1.37;;;;;;;;;;5080698;27;21157;-74
2023/06/26 09:03:17;;;;;;;0.98;0.98;;;;;;;;;;5081934;27;20725;-74
2023/06/26 09:05:44;;;;;;;1.50;1.43;;;;;;;;;;5077981;28;20425;-74
2023/06/26 09:08:13;;;;;;;1.30;1.23;;;;;;;;;;5080613;28;20503;-74
2023/06/26 09:10:40;;;;;;;1.65;1.58;;;;;;;;;;5078923;28;20456;-74
2023/06/26 09:13:09;;;;;;;1.50;1.43;;;;;;;;;;5086123;28;20437;-75
2023/06/26 09:15:55;;;;;;;1.53;1.43;;;;;;;;;;5068635;27;20429;-74
2023/06/26 09:18:49;;;;;;;1.58;1.48;;;;;;;;;;5104658;27;20904;-53
2023/06/26 09:21:17;;;;;;;1.48;1.40;;;;;;;;;;5086372;28;20425;-53
2023/06/26 09:23:50;;;;;;;1.10;1.10;;;;;;;;;;5084375;28;21464;-56
2023/06/26 09:26:18;;;;;;;1.50;1.40;;;;;;;;;;5084134;28;20974;-55
2023/06/26 09:28:45;;;;;;;1.33;1.27;;;;;;;;;;5079540;28;20446;-55
2023/06/26 09:31:13;;;;;;;1.75;1.65;;;;;;;;;;5075213;28;20465;-55
2023/06/26 09:33:47;;;;;;;1.50;1.40;;;;;;;;;;5075104;28;20542;-55
2023/06/26 09:36:21;;;;;;;1.50;1.40;;;;;;;;;;5080918;28;20430;-55
2023/06/26 09:38:48;;;;;;;91.07;80.15;;;;;;;;;;5081153;28;20507;-55
2023/06/26 09:41:20;;;;;;;72.55;65.85;;;;;;;;;;5102243;27;20505;-55
2023/06/26 09:43:49;;;;;;;2.22;1.23;;;;;;;;;;5102650;27;20449;-56
2023/06/26 09:46:25;;;;;;;1.00;1.00;;;;;;;;;;5115676;27;20434;-56
2023/06/26 09:49:06;;;;;;;3.13;1.50;;;;;;;;;;5100152;27;20429;-55
2023/06/26 09:51:34;;;;;;;2.30;1.27;;;;;;;;;;5097355;27;20433;-55
2023/06/26 09:54:05;;;;;;;1.25;1.25;;;;;;;;;;5107969;27;20456;-55
2023/06/26 09:56:33;;;;;;;1.20;0.90;;;;;;;;;;5104417;27;20427;-55
2023/06/26 09:59:05;;;;;;;1.13;1.13;;;;;;;;;;5101330;27;20429;-55
2023/06/26 10:01:33;;;;;;;1.33;1.30;;;;;;;;;;5105016;27;20436;-55
2023/06/26 10:04:01;;;;;;;1.48;1.17;;;;;;;;;;5102265;27;20421;-55
2023/06/26 10:06:34;;;;;;;1.57;1.47;;;;;;;;;;5105159;27;20466;-56
2023/06/26 10:09:02;;;;;;;1.10;1.10;;;;;;;;;;5106785;27;20984;-55
2023/06/26 10:11:53;;;;;;;18.73;16.85;;;;;;;;;;5101804;27;20460;-55
2023/06/26 10:14:22;;;;;;;0.63;0.63;;;;;;;;;;5101874;27;20510;-55
2023/06/26 10:16:50;;;;;;;1.55;1.38;;;;;;;;;;5121767;27;20434;-55
2023/06/26 10:19:23;;;;;;;2.25;1.50;;;;;;;;;;5102412;27;20447;-58
2023/06/26 10:21:52;;;;;;;1.20;1.10;;;;;;;;;;5099259;27;20789;-55
2023/06/26 10:24:21;;;;;;;1.10;1.10;;;;;;;;;;5103467;27;20508;-55
2023/06/26 10:26:50;;;;;;;1.00;1.00;;;;;;;;;;5119425;27;20425;-55
2023/06/26 10:29:18;;;;;;;1.48;1.40;;;;;;;;;;5091477;27;22075;-55
2023/06/26 10:31:49;;;;;;;1.67;1.58;;;;;;;;;;5089256;27;20436;-55
2023/06/26 10:34:17;;;;;;;5.70;1.70;;;;;;;;;;5103905;27;20468;-56
2023/06/26 10:37:03;;;;;;;1.95;1.50;;;;;;;;;;5091033;27;20427;-56
2023/06/26 10:39:49;;;;;;;1.60;1.40;;;;;;;;;;5082655;27;20491;-55
2023/06/26 10:42:18;;;;;;;1.25;1.23;;;;;;;;;;5089519;27;20458;-55
2023/06/26 10:44:46;;;;;;;1.97;1.30;;;;;;;;;;5089822;27;20509;-56
2023/06/26 10:47:36;;;;;;;1.13;1.13;;;;;;;;;;5092462;27;20432;-56
2023/06/26 10:50:21;;;;;;;1.00;1.00;;;;;;;;;;5091780;27;20424;-55
2023/06/26 10:53:18;;;;;;;0.95;0.95;;;;;;;;;;5092281;27;20438;-55
2023/06/26 10:56:06;;;;;;;1.33;1.20;;;;;;;;;;5092057;27;20720;-55
2023/06/26 10:58:40;;;;;;;1.17;1.17;;;;;;;;;;5076431;27;20538;-55
2023/06/26 11:01:14;;;;;;;0.80;0.80;;;;;;;;;;5087029;27;20522;-55
2023/06/26 11:03:49;;;;;;;1.92;1.30;;;;;;;;;;5088949;27;20975;-56
2023/06/26 11:06:20;;;;;;;2.42;1.60;;;;;;;;;;5090182;27;20428;-55
2023/06/26 11:08:48;;;;;;;2.00;1.63;;;;;;;;;;5088213;27;20452;-56
2023/06/26 11:11:16;;;;;;;3.35;1.17;;;;;;;;;;5088374;27;20422;-56
2023/06/26 11:13:46;;;;;;;1.33;1.23;;;;;;;;;;5090800;27;20546;-55
2023/06/26 11:16:17;;;;;;;1.13;1.08;;;;;;;;;;5088199;27;20436;-56
2023/06/26 11:18:46;;;;;;;1.45;1.35;;;;;;;;;;5090504;27;20526;-55
2023/06/26 11:21:14;;;;;;;1.00;1.00;;;;;;;;;;5086093;27;20580;-55
2023/06/26 11:23:41;;;;;;;1.27;1.27;;;;;;;;;;5090010;27;20507;-55
2023/06/26 11:26:15;;;;;;;1.80;1.70;;;;;;;;;;5089421;27;20423;-56
2023/06/26 11:28:47;;;;;;;1.45;1.35;;;;;;;;;;5088999;28;23701;-55
2023/06/26 11:31:27;;;;;;;1.20;1.20;;;;;;;;;;5093467;27;20446;-55
2023/06/26 11:33:58;;;;;;;1.48;1.25;;;;;;;;;;5092032;27;20422;-55
2023/06/26 11:36:26;;;;;;;1.92;1.45;;;;;;;;;;5112413;27;20438;-55
2023/06/26 11:38:58;;;;;;;1.30;1.13;;;;;;;;;;5102972;27;20431;-55
2023/06/26 11:41:27;;;;;;;1.30;1.10;;;;;;;;;;5107853;27;20529;-56
2023/06/26 11:43:56;;;;;;;1.63;1.52;;;;;;;;;;5106909;27;20519;-56
2023/06/26 11:46:23;;;;;;;1.57;1.40;;;;;;;;;;5105543;27;20454;-56
2023/06/26 11:48:50;;;;;;;1.67;1.58;;;;;;;;;;5112351;27;20453;-55
2023/06/26 11:51:18;;;;;;;1.75;1.65;;;;;;;;;;5106860;27;20440;-56
2023/06/26 11:53:47;;;;;;;1.95;1.60;;;;;;;;;;5109167;27;20509;-56
2023/06/26 11:56:18;;;;;;;2.13;2.03;;;;;;;;;;5106215;27;20479;-55
2023/06/26 11:59:03;;;;;;;2.45;2.25;;;;;;;;;;5086402;27;20511;-56
2023/06/26 12:01:35;;;;;;;2.47;1.48;;;;;;;;;;5026551;28;20499;-56
2023/06/26 12:04:03;;;;;;;2.78;2.10;;;;;;;;;;5062909;28;20433;-56
2023/06/26 12:06:35;;;;;;;2.33;1.88;;;;;;;;;;5064995;28;20433;-56
2023/06/26 12:09:05;;;;;;;2.50;2.03;;;;;;;;;;5046568;28;20442;-56
2023/06/26 12:11:33;;;;;;;2.58;2.28;;;;;;;;;;5053211;28;20427;-56
2023/06/26 12:14:00;;;;;;;2.87;2.20;;;;;;;;;;5062385;28;20536;-56
2023/06/26 12:16:28;;;;;;;2.22;2.08;;;;;;;;;;5066189;28;20442;-56
2023/06/26 12:18:59;;;;;;;2.50;2.05;;;;;;;;;;5061375;28;20435;-56
2023/06/26 12:21:41;;;;;;;2.63;2.40;;;;;;;;;;5060657;28;20427;-53
2023/06/26 12:24:10;;;;;;;1.90;1.80;;;;;;;;;;5062503;28;20505;-57
2023/06/26 12:26:43;;;;;;;1.92;1.83;;;;;;;;;;5063672;28;20522;-56
2023/06/26 12:29:12;;;;;;;1.93;1.83;;;;;;;;;;5066391;28;21008;-56
2023/06/26 12:31:46;;;;;;;1.88;1.73;;;;;;;;;;5060215;28;20485;-56
2023/06/26 12:34:17;;;;;;;1.77;1.67;;;;;;;;;;5063024;28;21161;-55
2023/06/26 12:36:49;;;;;;;2.70;1.63;;;;;;;;;;5064029;28;20438;-57
2023/06/26 12:39:17;;;;;;;1.43;1.30;;;;;;;;;;5047914;28;20488;-56
2023/06/26 12:41:48;;;;;;;1.20;1.15;;;;;;;;;;5062625;28;20448;-57
2023/06/26 12:44:19;;;;;;;1.27;1.17;;;;;;;;;;5063635;28;20484;-54
2023/06/26 12:46:48;;;;;;;1.90;1.50;;;;;;;;;;5064800;28;20434;-54
2023/06/26 12:49:16;;;;;;;0.83;0.83;;;;;;;;;;5063496;28;20426;-55
2023/06/26 12:52:01;;;;;;;1.00;1.00;;;;;;;;;;5065959;28;20435;-55
2023/06/26 12:54:30;;;;;;;1.20;1.10;;;;;;;;;;5057429;28;21068;-55
2023/06/26 12:56:57;;;;;;;1.05;1.05;;;;;;;;;;5058913;28;20560;-55
2023/06/26 12:59:27;;;;;;;1.10;0.90;;;;;;;;;;5062239;28;20485;-55
2023/06/26 13:01:54;;;;;;;0.90;0.90;;;;;;;;;;5064966;28;20441;-55
2023/06/26 13:04:21;;;;;;;1.25;1.10;;;;;;;;;;5062391;28;20523;-55
2023/06/26 13:06:55;;;;;;;1.00;1.00;;;;;;;;;;5062704;28;20467;-55
2023/06/26 13:09:25;;;;;;;4.10;1.25;;;;;;;;;;5061675;28;20501;-55
2023/06/26 13:11:53;;;;;;;0.93;0.93;;;;;;;;;;5058961;28;20493;-54
2023/06/26 13:14:22;;;;;;;1.45;1.25;;;;;;;;;;5063254;28;20486;-54
2023/06/26 13:16:49;;;;;;;1.40;1.30;;;;;;;;;;5058565;28;20529;-54
2023/06/26 13:19:19;;;;;;;1.17;1.17;;;;;;;;;;5065735;28;20430;-55
2023/06/26 13:21:46;;;;;;;1.25;1.15;;;;;;;;;;5063011;28;20479;-55
2023/06/26 13:24:16;;;;;;;2.20;1.10;;;;;;;;;;5047888;28;20440;-55
2023/06/26 13:26:44;;;;;;;2.20;1.00;;;;;;;;;;5063193;28;20487;-55
2023/06/26 13:29:11;;;;;;;0.98;0.98;;;;;;;;;;5062879;28;20526;-55
2023/06/26 13:31:38;;;;;;;1.03;0.87;;;;;;;;;;5063017;28;20481;-56
2023/06/26 13:34:06;;;;;;;1.50;1.50;;;;;;;;;;5063710;28;23001;-56
2023/06/26 13:36:34;;;;;;;1.10;1.10;;;;;;;;;;5066140;28;20427;-55
2023/06/26 13:39:03;;;;;;;1.35;1.23;;;;;;;;;;5067289;28;20431;-55
2023/06/26 13:41:33;;;;;;;1.20;1.20;;;;;;;;;;5063182;28;20895;-55
2023/06/26 13:44:00;;;;;;;1.23;1.23;;;;;;;;;;5060547;28;20437;-56
2023/06/26 13:46:38;;;;;;;1.20;1.05;;;;;;;;;;5064020;28;20508;-55
2023/06/26 13:49:08;;;;;;;1.35;1.25;;;;;;;;;;5067202;28;20435;-55
2023/06/26 13:51:35;;;;;;;2.70;1.08;;;;;;;;;;5062420;28;20490;-55
2023/06/26 13:54:02;;;;;;;9.50;1.30;;;;;;;;;;5064435;28;20441;-55
2023/06/26 13:56:30;;;;;;;1.15;1.15;;;;;;;;;;5061642;28;22890;-55
2023/06/26 13:58:58;;;;;;;0.73;0.73;;;;;;;;;;5063173;28;20435;-55
2023/06/26 14:01:25;;;;;;;33.00;30.20;;;;;;;;;;5063525;28;20927;-55
2023/06/26 14:03:53;;;;;;;1.30;0.70;;;;;;;;;;5060466;28;20752;-55
2023/06/26 14:06:20;;;;;;;0.40;0.40;;;;;;;;;;5070253;28;20431;-55
2023/06/26 14:08:47;;;;;;;0.50;0.50;;;;;;;;;;5066594;28;20427;-55
2023/06/26 14:11:15;;;;;;;0.50;0.50;;;;;;;;;;5068953;28;20513;-55
2023/06/26 14:13:47;;;;;;;32.88;30.45;;;;;;;;;;5067136;28;20424;-55
2023/06/26 14:16:14;;;;;;;2.10;1.10;;;;;;;;;;5063495;28;20510;-57
2023/06/26 14:18:43;;;;;;;0.88;0.88;;;;;;;;;;5062916;28;20919;-55
2023/06/26 14:21:10;;;;;;;0.77;0.77;;;;;;;;;;5065530;28;20430;-55
2023/06/26 14:23:40;;;;;;;1.27;1.00;;;;;;;;;;5065743;28;20435;-55
2023/06/26 14:26:07;;;;;;;2.60;1.02;;;;;;;;;;5063430;28;20921;-56
2023/06/26 14:28:35;;;;;;;1.00;0.90;;;;;;;;;;5066074;28;20534;-56
2023/06/26 14:31:02;;;;;;;1.30;1.20;;;;;;;;;;5068339;28;20964;-56
2023/06/26 14:33:29;;;;;;;0.70;0.70;;;;;;;;;;5064711;28;20427;-55
2023/06/26 14:35:56;;;;;;;0.77;0.77;;;;;;;;;;5058567;28;20449;-55
2023/06/26 14:38:23;;;;;;;0.70;0.70;;;;;;;;;;5066849;28;22061;-55
2023/06/26 14:40:56;;;;;;;1.00;1.00;;;;;;;;;;5061734;28;20548;-56
2023/06/26 14:43:25;;;;;;;0.50;0.50;;;;;;;;;;5047507;28;20457;-54
2023/06/26 14:45:54;;;;;;;0.90;0.90;;;;;;;;;;5065501;28;21934;-54
2023/06/26 14:48:21;;;;;;;0.70;0.70;;;;;;;;;;5068699;28;20439;-54
2023/06/26 14:50:57;;;;;;;0.88;0.57;;;;;;;;;;5068028;28;21059;-55
2023/06/26 14:53:34;;;;;;;0.57;0.57;;;;;;;;;;5054020;28;21197;-55
2023/06/26 14:56:05;;;;;;;0.70;0.70;;;;;;;;;;5065904;28;20439;-55
2023/06/26 14:58:33;;;;;;;0.40;0.40;;;;;;;;;;5067394;28;20522;-56
2023/06/26 15:01:10;;;;;;;0.60;0.60;;;;;;;;;;5062169;28;20492;-55
2023/06/26 15:03:37;;;;;;;1.10;0.70;;;;;;;;;;5060795;28;20477;-56
2023/06/26 15:06:32;;;;;;;0.68;0.68;;;;;;;;;;5064731;28;20417;-55
2023/06/26 15:09:24;;;;;;;0.52;0.52;;;;;;;;;;5067728;28;21259;-55
2023/06/26 15:11:54;;;;;;;1.00;0.68;;;;;;;;;;5065030;28;20489;-55
2023/06/26 15:14:22;;;;;;;2.00;0.70;;;;;;;;;;5067497;28;21009;-55
2023/06/26 15:16:50;;;;;;;1.90;0.80;;;;;;;;;;5063859;28;20950;-55
2023/06/26 15:19:18;;;;;;;0.60;0.60;;;;;;;;;;5067117;28;20426;-55
2023/06/26 15:21:46;;;;;;;0.70;0.70;;;;;;;;;;5059655;28;20469;-55
2023/06/26 15:24:37;;;;;;;0.70;0.43;;;;;;;;;;5065872;28;21223;-55
2023/06/26 15:27:09;;;;;;;0.65;0.50;;;;;;;;;;5061562;28;20431;-55
2023/06/26 15:29:37;;;;;;;1.70;0.80;;;;;;;;;;5049438;28;20574;-55
2023/06/26 15:32:04;;;;;;;0.70;0.70;;;;;;;;;;5067692;28;20437;-55
2023/06/26 15:34:37;;;;;;;0.45;0.45;;;;;;;;;;5066300;28;20509;-55
2023/06/26 15:37:05;;;;;;;1.45;0.73;;;;;;;;;;5067618;28;20460;-56
2023/06/26 15:39:34;;;;;;;0.60;0.60;;;;;;;;;;5065186;28;20427;-55
2023/06/26 15:42:02;;;;;;;0.40;0.40;;;;;;;;;;5063140;28;23423;-55
2023/06/26 15:44:30;;;;;;;0.52;0.38;;;;;;;;;;5063588;28;20426;-55
2023/06/26 15:47:04;;;;;;;0.40;0.40;;;;;;;;;;5066086;28;20435;-55
2023/06/26 15:49:31;;;;;;;2.30;0.60;;;;;;;;;;5067636;28;20451;-55
2023/06/26 15:51:58;;;;;;;0.40;0.40;;;;;;;;;;5063155;28;20443;-55
2023/06/26 15:54:50;;;;;;;0.93;0.65;;;;;;;;;;5067679;28;20541;-55
2023/06/26 15:57:20;;;;;;;2.50;1.52;;;;;;;;;;5066442;28;20421;-55
2023/06/26 15:59:47;;;;;;;0.68;0.68;;;;;;;;;;5064670;28;20477;-54
2023/06/26 16:02:15;;;;;;;0.63;0.57;;;;;;;;;;5065243;28;20931;-55
2023/06/26 16:04:48;;;;;;;0.60;0.60;;;;;;;;;;5066364;28;20412;-55
2023/06/26 16:07:18;;;;;;;0.40;0.40;;;;;;;;;;5066641;28;20492;-54
2023/06/26 16:09:46;;;;;;;0.70;0.50;;;;;;;;;;5060131;28;20442;-54
2023/06/26 16:12:17;;;;;;;0.70;0.57;;;;;;;;;;5063869;28;20856;-55
2023/06/26 16:14:44;;;;;;;0.40;0.40;;;;;;;;;;5062365;28;20440;-55
2023/06/26 16:17:12;;;;;;;0.52;0.52;;;;;;;;;;5045018;28;20441;-55
2023/06/26 16:19:39;;;;;;;0.40;0.40;;;;;;;;;;5048155;28;20503;-55
2023/06/26 16:22:08;;;;;;;3.70;0.80;;;;;;;;;;5064071;28;20425;-55
2023/06/26 16:24:35;;;;;;;0.50;0.50;;;;;;;;;;5063153;28;20514;-55
2023/06/26 16:27:03;;;;;;;0.50;0.50;;;;;;;;;;5065584;28;20431;-55
2023/06/26 16:29:30;;;;;;;0.90;0.65;;;;;;;;;;5062271;28;20435;-55
2023/06/26 16:31:57;;;;;;;0.60;0.60;;;;;;;;;;5065520;28;20437;-55
2023/06/26 16:34:24;;;;;;;0.47;0.47;;;;;;;;;;5062563;28;20430;-55
2023/06/26 16:36:52;;;;;;;0.50;0.50;;;;;;;;;;5064097;28;20431;-55
2023/06/26 16:39:24;;;;;;;2.10;0.70;;;;;;;;;;5054180;28;20444;-55
2023/06/26 16:41:54;;;;;;;0.45;0.45;;;;;;;;;;5063477;28;20427;-55
2023/06/26 16:44:24;;;;;;;0.30;0.30;;;;;;;;;;5066043;28;20423;-55
2023/06/26 16:46:55;;;;;;;0.60;0.60;;;;;;;;;;5051744;28;20441;-56
2023/06/26 16:49:32;;;;;;;0.50;0.50;;;;;;;;;;5049561;28;20947;-55
2023/06/26 16:52:00;;;;;;;0.82;0.57;;;;;;;;;;5064625;28;20964;-55
2023/06/26 16:54:28;;;;;;;0.35;0.35;;;;;;;;;;5060938;28;20443;-55
2023/06/26 16:56:57;;;;;;;1.13;0.47;;;;;;;;;;5064360;28;20932;-56
2023/06/26 16:59:28;;;;;;;1.42;0.70;;;;;;;;;;5064187;28;20546;-56
2023/06/26 17:02:00;;;;;;;0.63;0.63;;;;;;;;;;5060240;28;20432;-55
2023/06/26 17:04:32;;;;;;;0.70;0.45;;;;;;;;;;5058477;28;20773;-55
2023/06/26 17:07:02;;;;;;;0.93;0.77;;;;;;;;;;5066655;28;20500;-55
2023/06/26 17:09:30;;;;;;;0.60;0.60;;;;;;;;;;5049465;28;21112;-55
2023/06/26 17:11:58;;;;;;;0.40;0.40;;;;;;;;;;5064443;28;20467;-56
2023/06/26 17:14:28;;;;;;;2.70;0.80;;;;;;;;;;5064163;28;20522;-56
2023/06/26 17:17:21;;;;;;;0.50;0.50;;;;;;;;;;5066870;28;20413;-55
2023/06/26 17:20:12;;;;;;;0.60;0.60;;;;;;;;;;5051433;28;20470;-56
2023/06/26 17:22:43;;;;;;;0.40;0.40;;;;;;;;;;5048337;28;20429;-55
2023/06/26 17:25:11;;;;;;;2.05;0.65;;;;;;;;;;5062007;28;20971;-56
2023/06/26 17:27:38;;;;;;;0.70;0.60;;;;;;;;;;5063564;28;22588;-54
2023/06/26 17:30:06;;;;;;;0.45;0.45;;;;;;;;;;5050210;28;20844;-55
2023/06/26 17:32:36;;;;;;;2.35;0.70;;;;;;;;;;5048321;28;20907;-55
2023/06/26 17:35:07;;;;;;;1.00;1.00;;;;;;;;;;5058942;28;20452;-55
2023/06/26 17:37:58;;;;;;;0.50;0.50;;;;;;;;;;5066860;28;20497;-53
2023/06/26 17:40:25;;;;;;;0.40;0.40;;;;;;;;;;5062898;28;20446;-53
2023/06/26 17:42:54;;;;;;;0.30;0.30;;;;;;;;;;5066627;28;20435;-53
2023/06/26 17:45:21;;;;;;;5.00;0.57;;;;;;;;;;5069739;28;21012;-53
2023/06/26 17:47:49;;;;;;;0.73;0.63;;;;;;;;;;5068593;28;20514;-53
2023/06/26 17:50:19;;;;;;;0.47;0.32;;;;;;;;;;5068166;28;20443;-53
2023/06/26 17:52:46;;;;;;;0.60;0.60;;;;;;;;;;5069219;28;20439;-54
2023/06/26 17:55:15;;;;;;;0.30;0.30;;;;;;;;;;5069657;28;20522;-54
2023/06/26 17:57:42;;;;;;;0.60;0.60;;;;;;;;;;5069819;28;20425;-53
2023/06/26 18:00:10;;;;;;;0.30;0.30;;;;;;;;;;5069126;28;20779;-54
2023/06/26 18:02:39;;;;;;;0.50;0.50;;;;;;;;;;5064703;28;20487;-55
2023/06/26 18:05:08;;;;;;;0.30;0.30;;;;;;;;;;5065686;28;20432;-55
2023/06/26 18:07:39;;;;;;;0.40;0.40;;;;;;;;;;5056952;28;20488;-55
2023/06/26 18:10:26;;;;;;;0.50;0.50;;;;;;;;;;5053076;28;20412;-54
2023/06/26 18:12:56;;;;;;;0.40;0.40;;;;;;;;;;5065484;28;20431;-55
2023/06/26 18:15:28;;;;;;;0.30;0.30;;;;;;;;;;5065964;28;21707;-55
2023/06/26 18:17:55;;;;;;;0.60;0.60;;;;;;;;;;5059391;28;21277;-55
2023/06/26 18:20:23;;;;;;;0.50;0.40;;;;;;;;;;5066537;28;20543;-55
2023/06/26 18:22:53;;;;;;;1.38;0.80;;;;;;;;;;5065501;28;20552;-55
2023/06/26 18:25:22;;;;;;;0.47;0.47;;;;;;;;;;5069701;28;20445;-57
2023/06/26 18:27:51;;;;;;;1.58;0.60;;;;;;;;;;5066788;28;20500;-56
2023/06/26 18:30:18;;;;;;;0.40;0.40;;;;;;;;;;5070719;28;20454;-56
2023/06/26 18:32:51;;;;;;;0.93;0.52;;;;;;;;;;5071738;28;20514;-56
2023/06/26 18:35:18;;;;;;;0.80;0.50;;;;;;;;;;5068924;28;20470;-56
2023/06/26 18:37:48;;;;;;;0.30;0.30;;;;;;;;;;5068179;28;20427;-56
2023/06/26 18:40:19;;;;;;;0.63;0.30;;;;;;;;;;5070158;28;20431;-56
2023/06/26 18:42:50;;;;;;;0.30;0.30;;;;;;;;;;5069267;28;20430;-56
2023/06/26 18:45:17;;;;;;;0.40;0.40;;;;;;;;;;5069662;28;21205;-57
2023/06/26 18:47:45;;;;;;;0.60;0.32;;;;;;;;;;5069883;28;20992;-56
2023/06/26 18:50:15;;;;;;;0.70;0.40;;;;;;;;;;5054378;28;20431;-56
2023/06/26 18:52:42;;;;;;;0.40;0.40;;;;;;;;;;5066986;28;20441;-67
2023/06/26 18:55:10;;;;;;;0.50;0.50;;;;;;;;;;5068755;28;20473;-66
2023/06/26 18:58:01;;;;;;;1.60;0.60;;;;;;;;;;5070253;28;20477;-66
2023/06/26 19:00:30;;;;;;;0.53;0.53;;;;;;;;;;5068341;28;20451;-67
2023/06/26 19:02:58;;;;;;;0.82;0.30;;;;;;;;;;5066675;28;21023;-67
2023/06/26 19:05:29;;;;;;;0.63;0.63;;;;;;;;;;5055525;28;20775;-66
2023/06/26 19:07:58;;;;;;;0.50;0.50;;;;;;;;;;5071590;28;20514;-68
2023/06/26 19:10:25;;;;;;;0.40;0.40;;;;;;;;;;5069123;28;20493;-66
2023/06/26 19:12:53;;;;;;;3.30;0.45;;;;;;;;;;5052202;28;20426;-67
2023/06/26 19:15:21;;;;;;;1.30;0.47;;;;;;;;;;5070495;28;20476;-67
2023/06/26 19:17:48;;;;;;;0.50;0.50;;;;;;;;;;5066014;28;20471;-69
2023/06/26 19:20:16;;;;;;;0.40;0.40;;;;;;;;;;5064971;28;20434;-66
2023/06/26 19:22:48;;;;;;;0.30;0.30;;;;;;;;;;5054758;28;20562;-65
2023/06/26 19:25:16;;;;;;;0.40;0.40;;;;;;;;;;5053974;28;20431;-66
2023/06/26 19:27:43;;;;;;;0.40;0.40;;;;;;;;;;5072947;28;20460;-65
2023/06/26 19:30:18;;;;;;;1.40;0.50;;;;;;;;;;5069754;28;20426;-65
2023/06/26 19:32:45;;;;;;;0.47;0.47;;;;;;;;;;5066234;28;20556;-67
2023/06/26 19:35:14;;;;;;;0.40;0.40;;;;;;;;;;5065655;28;20432;-67
2023/06/26 19:37:46;;;;;;;0.40;0.40;;;;;;;;;;5066348;28;20816;-66
2023/06/26 19:40:31;;;;;;;1.97;0.67;;;;;;;;;;5065695;28;20429;-66
2023/06/26 19:43:03;;;;;;;0.63;0.63;;;;;;;;;;5067320;28;20869;-66
2023/06/26 19:45:33;;;;;;;0.60;0.60;;;;;;;;;;5070527;28;20433;-67
2023/06/26 19:48:06;;;;;;;0.40;0.40;;;;;;;;;;5064842;28;20434;-68
2023/06/26 19:50:34;;;;;;;0.40;0.40;;;;;;;;;;5068943;28;20461;-68
2023/06/26 19:53:05;;;;;;;2.05;1.00;;;;;;;;;;5066647;28;20434;-66
2023/06/26 19:55:43;;;;;;;3.33;0.77;;;;;;;;;;5068041;28;20514;-66
2023/06/26 19:58:10;;;;;;;2.80;0.70;;;;;;;;;;5066672;28;20588;-66
2023/06/26 20:00:37;;;;;;;0.40;0.40;;;;;;;;;;5068014;28;20434;-67
2023/06/26 20:03:11;;;;;;;2.28;0.75;;;;;;;;;;5068160;28;21718;-66
2023/06/26 20:05:38;;;;;;;0.90;0.60;;;;;;;;;;5066630;28;20489;-67
2023/06/26 20:08:10;;;;;;;1.30;0.98;;;;;;;;;;5068562;28;20434;-67
2023/06/26 20:10:37;;;;;;;0.35;0.35;;;;;;;;;;5068812;28;20429;-66
2023/06/26 20:13:11;;;;;;;1.00;0.43;;;;;;;;;;5063738;28;20518;-66
2023/06/26 20:15:41;;;;;;;3.47;0.60;;;;;;;;;;5070097;28;21231;-67
2023/06/26 20:18:14;;;;;;;0.70;0.40;;;;;;;;;;5067872;28;20433;-65
2023/06/26 20:20:41;;;;;;;0.70;0.70;;;;;;;;;;5051222;28;20459;-67